Terminal Aerodrome Forecast
Issued by NWS Charleston, WV

Home | Current Version | Previous Version | Text Only | Print | Product List | Glossary On
Versions: 1 2 3 4 5 6 7 8 9 10 11 12 13 14 15 16 17 18 19 20 21 22 23
037
FTUS41 KRLX 100533
TAFCRW
TAF
KCRW 100533Z 1006/1106 VRB03KT P6SM -SHSN OVC025
     FM100900 VRB03KT P6SM BKN040
     FM102100 25004KT P6SM SCT200
     FM110300 VRB03KT P6SM BKN100=

USA.gov is the U.S. government's official web portal to all federal, state and local government web resources and services.